Palava, Texas
Current Conditions -  °F | °C
As of 1:55 PM on Saturday 25 Oct 2014 (Local Time) from KSWW Reporting Station
Clear Clear  
Wind Chill: 85°   Ceiling: Unl
Heat Index: 85°   Visibility: 10mi
Dew Point: 48°   Wind: 8mph
Humidity: 28%   Direction: 190°S
Pressure: 30.18"   Gusts: NA
Location:  32.5104°N, 100.305°W
Report Text: KSWW 251855Z AUTO 19007KT 10SM CLR 29/09 A3018 RMK AO2 T02920090
Loading
Personal Weather Stations






























Interactive Weather Map
Tropical Storm Tracking
New forecast layout! Learn more

10-Day Weather Forecast

Advertisements
Track Severe Weather on mobile